Time;durP1;ratioP1;P1;durP2;ratioP2;P2;SDS_P1;SDS_P2;PMS_P1;PMS_P2;Temp;Humidity;BMP_temperature;BMP_pressure;BME280_temperature;BME280_humidity;BME280_pressure;Samples;Min_cycle;Max_cycle;Signal;HPM_P1;HPM_P2
2022/11/27 00:01:28;;;;;;;32.73;10.67;;;;;;;6.03;100.00;100958.72;31578911;28;20040;-73
2022/11/27 00:16:30;;;;;;;33.07;10.67;;;;;;;5.95;100.00;100968.63;31578687;28;20052;-73
2022/11/27 00:31:33;;;;;;;30.77;10.80;;;;;;;6.05;100.00;100961.84;31582941;28;20135;-72
2022/11/27 00:46:35;;;;;;;23.40;8.43;;;;;;;5.74;100.00;100963.72;31578188;28;20067;-74
2022/11/27 01:01:40;;;;;;;33.63;9.97;;;;;;;5.58;100.00;100954.25;31563931;28;20410;-73
2022/11/27 01:16:42;;;;;;;24.77;9.57;;;;;;;5.56;100.00;100960.00;31572263;28;20056;-73
2022/11/27 01:31:44;;;;;;;29.90;9.40;;;;;;;5.63;100.00;100952.03;31602141;28;20052;-73
2022/11/27 01:46:49;;;;;;;14.47;8.07;;;;;;;-144.18;100.00;69644.63;31593711;28;20117;-73
2022/11/27 02:01:51;;;;;;;19.83;8.50;;;;;;;-144.18;100.00;69644.63;31592572;28;20044;-74
2022/11/27 02:17:05;;;;;;;10.53;5.73;;;;;;;-144.18;100.00;69644.63;31593275;28;20052;-73
2022/11/27 02:32:36;;;;;;;15.97;7.10;;;;;;;-144.18;100.00;69644.63;31604263;28;20047;-74
2022/11/27 02:47:41;;;;;;;13.87;5.70;;;;;;;-144.18;100.00;69644.63;31588126;28;20041;-73
2022/11/27 03:03:00;;;;;;;14.10;7.60;;;;;;;-144.18;100.00;69644.63;31589526;28;20044;-73
2022/11/27 03:18:42;;;;;;;16.73;7.97;;;;;;;-144.18;100.00;69644.63;31584842;28;20457;-73
2022/11/27 03:33:45;;;;;;;23.03;8.23;;;;;;;-144.18;100.00;69644.63;31585538;28;20052;-74
2022/11/27 03:49:07;;;;;;;24.17;7.67;;;;;;;-144.18;100.00;69644.63;31583225;28;20051;-74
2022/11/27 04:04:09;;;;;;;15.40;8.47;;;;;;;-144.18;100.00;69644.63;31570775;28;20128;-73
2022/11/27 04:19:11;;;;;;;26.03;8.70;;;;;;;-144.18;100.00;69644.63;31567473;28;20068;-73
2022/11/27 04:34:13;;;;;;;30.23;10.27;;;;;;;-144.18;100.00;69644.63;31571774;28;20056;-72
2022/11/27 04:49:16;;;;;;;36.40;8.70;;;;;;;-144.18;100.00;69644.63;31583886;28;20047;-72
2022/11/27 05:04:17;;;;;;;51.77;14.00;;;;;;;-144.18;100.00;69644.63;31587956;28;20075;-74
2022/11/27 05:19:21;;;;;;;47.53;12.43;;;;;;;-144.18;100.00;69644.63;31606356;28;20044;-73
2022/11/27 05:34:23;;;;;;;50.17;12.97;;;;;;;-144.18;100.00;69644.63;31592507;28;20048;-73
2022/11/27 05:49:25;;;;;;;44.97;12.00;;;;;;;-144.18;100.00;69644.63;31580863;28;20051;-74
2022/11/27 06:04:49;;;;;;;27.27;9.80;;;;;;;-144.18;100.00;69644.63;31578287;28;20048;-74
2022/11/27 06:19:51;;;;;;;35.10;11.70;;;;;;;-144.18;100.00;69644.63;31591364;28;20040;-76
2022/11/27 06:34:53;;;;;;;32.03;9.50;;;;;;;-144.18;100.00;69644.63;31590882;28;20055;-74
2022/11/27 06:49:55;;;;;;;41.67;11.27;;;;;;;-144.18;100.00;69644.63;31597113;28;20051;-73
2022/11/27 07:04:57;;;;;;;39.73;11.47;;;;;;;-144.18;100.00;69644.63;31593662;28;20052;-73
2022/11/27 07:19:59;;;;;;;36.80;12.13;;;;;;;-144.18;100.00;69644.63;31585529;28;20055;-73
2022/11/27 07:35:01;;;;;;;34.07;10.73;;;;;;;-144.18;100.00;69644.63;31583402;28;20081;-74
2022/11/27 07:50:06;;;;;;;44.03;11.33;;;;;;;-144.18;100.00;69644.63;31596348;28;20059;-74
2022/11/27 08:05:08;;;;;;;37.13;10.20;;;;;;;-144.18;100.00;69644.63;31567652;28;20048;-73
2022/11/27 08:20:14;;;;;;;54.03;16.02;;;;;;;-144.18;100.00;69644.63;31567791;28;20086;-75
2022/11/27 08:35:16;;;;;;;49.00;12.90;;;;;;;-144.18;100.00;69644.63;31571765;28;20389;-72
2022/11/27 08:50:18;;;;;;;43.40;13.13;;;;;;;-144.18;100.00;69644.63;31590632;28;20073;-74
2022/11/27 09:05:20;;;;;;;43.77;13.73;;;;;;;-144.18;100.00;69644.63;31561717;28;20455;-75
2022/11/27 09:20:22;;;;;;;34.40;11.77;;;;;;;-144.18;100.00;69644.63;31560244;28;20109;-74
2022/11/27 09:35:24;;;;;;;41.90;11.00;;;;;;;-144.18;100.00;69644.63;31593730;28;20106;-73
2022/11/27 09:50:41;;;;;;;39.43;9.97;;;;;;;-144.18;100.00;69644.63;31602409;28;20459;-75
2022/11/27 10:06:07;;;;;;;34.60;9.80;;;;;;;-144.18;100.00;69644.63;31581430;28;20047;-72
2022/11/27 10:21:21;;;;;;;;;;;;;;;-144.18;100.00;69644.63;31582739;28;20068;-70
2022/11/27 10:36:40;;;;;;;47.37;13.03;;;;;;;-144.18;100.00;69644.63;31596713;28;20386;-72
2022/11/27 10:51:42;;;;;;;36.17;10.03;;;;;;;-144.18;100.00;69644.63;31586225;28;20040;-73
2022/11/27 11:06:49;;;;;;;34.90;8.53;;;;;;;-144.18;100.00;69644.63;31597628;28;20048;-75
2022/11/27 11:21:51;;;;;;;24.53;9.23;;;;;;;-144.18;100.00;69644.63;31591000;28;20047;-74
2022/11/27 11:37:17;;;;;;;30.37;9.50;;;;;;;-144.18;100.00;69644.63;31601997;28;20566;-71
2022/11/27 11:52:37;;;;;;;33.17;11.13;;;;;;;-144.18;100.00;69644.63;31577053;28;20055;-71
2022/11/27 12:08:14;;;;;;;26.73;10.47;;;;;;;-144.18;100.00;69644.63;31589097;28;20760;-70
2022/11/27 12:23:40;;;;;;;26.70;8.90;;;;;;;-144.18;100.00;69644.63;31567133;28;20044;-71
2022/11/27 12:39:01;;;;;;;31.53;9.60;;;;;;;-144.18;100.00;69644.63;31573120;28;20113;-70
2022/11/27 12:54:10;;;;;;;22.77;7.93;;;;;;;-144.18;100.00;69644.63;31603185;28;20071;-71
2022/11/27 13:09:21;;;;;;;28.40;8.23;;;;;;;-144.18;100.00;69644.63;31577876;28;20052;-72
2022/11/27 13:24:25;;;;;;;27.83;9.60;;;;;;;-144.18;100.00;69644.63;31561879;28;20059;-71
2022/11/27 13:39:33;;;;;;;19.13;7.30;;;;;;;-144.18;100.00;69644.63;31574552;28;20092;-69
2022/11/27 13:54:35;;;;;;;21.17;6.83;;;;;;;-144.18;100.00;69644.63;31554115;28;20161;-71
2022/11/27 14:09:48;;;;;;;27.77;8.57;;;;;;;-144.18;100.00;69644.63;31603197;28;20044;-71
2022/11/27 14:24:54;;;;;;;19.53;8.17;;;;;;;-144.18;100.00;69644.63;31604219;28;20052;-73
2022/11/27 14:39:56;;;;;;;32.07;10.83;;;;;;;-144.18;100.00;69644.63;31591934;28;20102;-71
2022/11/27 14:55:00;;;;;;;36.57;13.43;;;;;;;-144.18;100.00;69644.63;31592584;28;20481;-71
2022/11/27 15:10:15;;;;;;;34.60;14.33;;;;;;;-144.18;100.00;69644.63;31605543;28;20044;-70
2022/11/27 15:25:45;;;;;;;30.93;12.97;;;;;;;-144.18;100.00;69644.63;31576815;28;20051;-71
2022/11/27 15:40:58;;;;;;;23.50;12.20;;;;;;;-144.18;100.00;69644.63;31586288;28;20052;-70
2022/11/27 15:55:59;;;;;;;22.40;9.27;;;;;;;-144.18;100.00;69644.63;31596174;28;20401;-71
2022/11/27 16:11:04;;;;;;;36.60;14.13;;;;;;;-144.18;100.00;69644.63;31614380;28;20055;-71
2022/11/27 16:26:07;;;;;;;21.80;9.43;;;;;;;-144.18;100.00;69644.63;31669350;28;20047;-73
2022/11/27 16:41:12;;;;;;;26.63;11.03;;;;;;;-144.18;100.00;69644.63;31605018;28;20417;-72
2022/11/27 16:56:16;;;;;;;19.83;11.10;;;;;;;-144.18;100.00;69644.63;31587575;28;20052;-72
2022/11/27 17:11:20;;;;;;;36.47;16.07;;;;;;;-144.18;100.00;69644.63;31591677;28;20048;-72
2022/11/27 17:26:25;;;;;;;30.50;13.73;;;;;;;-144.18;100.00;69644.63;31581044;28;20052;-72
2022/11/27 17:41:28;;;;;;;31.63;15.90;;;;;;;-144.18;100.00;69644.63;31591335;28;20060;-69
2022/11/27 17:56:30;;;;;;;22.27;10.47;;;;;;;-144.18;100.00;69644.63;31576162;28;20040;-72
2022/11/27 18:11:34;;;;;;;37.97;19.03;;;;;;;-144.18;100.00;69644.63;31602525;28;20063;-71
2022/11/27 18:26:36;;;;;;;28.43;12.60;;;;;;;-144.18;100.00;69644.63;31608327;28;20109;-74
2022/11/27 18:41:59;;;;;;;29.70;13.27;;;;;;;-144.18;100.00;69644.63;31599090;28;20047;-72
2022/11/27 18:57:00;;;;;;;26.60;12.43;;;;;;;-144.18;100.00;69644.63;31573936;28;20556;-70
2022/11/27 19:12:02;;;;;;;48.23;16.63;;;;;;;14.83;nan;101182.13;31564439;28;20075;-71
2022/11/27 19:27:04;;;;;;;48.73;16.50;;;;;;;7.64;nan;101038.19;31572071;28;20059;-75
2022/11/27 19:42:06;;;;;;;63.80;16.13;;;;;;;7.64;nan;100919.28;31591219;28;20048;-76
2022/11/27 19:57:08;;;;;;;87.67;17.33;;;;;;;7.69;nan;100835.16;31562235;28;20500;-79
2022/11/27 20:12:10;;;;;;;89.40;16.87;;;;;;;7.47;nan;100747.84;31580444;28;20062;-77
2022/11/27 20:27:12;;;;;;;75.33;17.17;;;;;;;7.60;nan;100650.22;31568671;28;20405;-76
2022/11/27 20:42:14;;;;;;;72.57;15.27;;;;;;;7.90;nan;100614.72;31582069;28;20536;-71
2022/11/27 20:57:16;;;;;;;85.07;16.70;;;;;;;8.25;nan;100563.28;31574122;28;20160;-71
2022/11/27 21:12:18;;;;;;;69.50;17.77;;;;;;;8.55;nan;100620.41;31573911;28;20056;-72
2022/11/27 21:27:20;;;;;;;67.30;16.20;;;;;;;8.73;nan;100642.03;31563726;28;20052;-71
2022/11/27 21:42:23;;;;;;;76.60;17.17;;;;;;;8.48;nan;100695.44;31611944;28;20580;-71
2022/11/27 21:57:24;;;;;;;79.40;17.50;;;;;;;8.67;nan;100686.13;31607729;28;20425;-71
2022/11/27 22:12:26;;;;;;;60.63;16.00;;;;;;;8.70;nan;100702.34;31607957;28;20052;-77
2022/11/27 22:27:29;;;;;;;69.50;16.23;;;;;;;8.91;nan;100720.47;31574837;28;20060;-71
2022/11/27 22:42:31;;;;;;;62.33;16.00;;;;;;;9.05;nan;100736.66;31601662;28;20051;-72
2022/11/27 22:57:33;;;;;;;55.73;16.17;;;;;;;9.11;nan;100756.75;31580542;28;20143;-71
2022/11/27 23:12:35;;;;;;;63.90;16.57;;;;;;;9.26;nan;100765.59;31559257;28;20052;-70
2022/11/27 23:27:37;;;;;;;68.17;14.73;;;;;;;9.31;nan;100795.00;31581584;28;20409;-69
2022/11/27 23:42:40;;;;;;;70.07;15.87;;;;;;;9.18;nan;100819.06;31606020;28;20052;-71
2022/11/27 23:57:42;;;;;;;78.47;16.23;;;;;;;-144.18;100.00;69644.63;31587987;28;20063;-70
